Lebanon, WI

1:41 PM CST en Febrero 01, 2015 (GMT -0600)
Watertown Municipal | Change Station
CLOSE
Current Station
Aeropuerto
Location: Watertown,
Altura: 833 ft
Estaciones meteorológicas cercanas
Aviso en curso: Winter Weather Advisory

Alt 833 ft 43.17 °N, 88.72 °W | Updated 26 minutes ago

Nieve
Nieve
19 ° F
Sensación térmica 6 ° F
N
15
Viento Variable Viento desde NNE
Gusts 26 mph

Hoy
Alta -- | Baja -- ° F
--% Posibilidad de precipitaciones
Ayer
Alta -- | Baja -- ° F
Precip. -- pul
7:10 AM 5:06 PM
Gibosa creciente, 96% visible
Presión 29.94 pul
Visibilidad 1.8 Millas
Nubes Nublado 1800 ft
Vientos helados 6 ° F
Punto de rocío 15 ° F
Humedad 85%
Precipitaciones 0.04 pul
Espesor de la nieve No disponible.
UV 1 de una escala de 12
Polen .10 de una escala de 12
Calidad del aire No disponible.
Flu Activity No disponible.
METAR KRYV 011915Z AUTO 03013G23KT 1 3/4SM -SN OVC018 M07/M09 A2994 RMK AO2 T10701092

More Conditions Fewer Conditions

Presión 29.94 pul
Visibilidad 1.8 Millas
Nubes Nublado 1800 ft
Vientos helados 6 ° F
Punto de rocío 15 ° F
Humedad 85%
Precipitaciones 0.04 pul
Espesor de la nieve No disponible.
UV 1 de una escala de 12
Polen .10 de una escala de 12
Calidad del aire No disponible.
Flu Activity No disponible.
METAR KRYV 011915Z AUTO 03013G23KT 1 3/4SM -SN OVC018 M07/M09 A2994 RMK AO2 T10701092

More Conditions Fewer Conditions

10-Day Weather Forecast

Almanac

Astronomía

Feb. 01, 2015 Salida Puesta
Hora real
Crepúsculo civil
Crepúsculo náutico
Crepúsculo astronómico
Luna
Horas de luz
Horas de luz
Tomorrow will be .
, % of the Moon is Illuminated

Extremos de hoy

Máximos del estado Bajos del estado

Community

WunderPhotos

Upload Photos

1,792,471 ¡fotos cargadas!

WunderBlogs® & News

Nearby

Calidad del aire

  Calidad del aire Índice AQ Contaminante
Not available.

Grosos de nieve

Estación Profundido Altura

Actividad de terremotos

Ciudad Distance Mag. Tiempo y dato
Magnitud mínima muestra es 2,5.

Temperaturas de aguas costeras

Lugar Temperatura

Estaciones meteorológicas cercanas